createdAt,value
2018-05-29T00:00:36.821Z,90.87
2018-05-29T00:03:04.303Z,89.83
2018-05-29T00:05:31.779Z,91.09
2018-05-29T00:07:59.273Z,90.28
2018-05-29T00:10:26.748Z,91.41
2018-05-29T00:12:54.207Z,91.46
2018-05-29T00:15:21.695Z,92.55
2018-05-29T00:17:49.160Z,91.51
2018-05-29T00:20:16.669Z,93.51
2018-05-29T00:22:44.128Z,92.50
2018-05-29T00:25:11.606Z,91.47
2018-05-29T00:27:39.097Z,91.32
2018-05-29T00:30:06.569Z,90.84
2018-05-29T00:32:34.050Z,92.41
2018-05-29T00:35:01.515Z,92.32
2018-05-29T00:37:28.979Z,90.26
2018-05-29T00:39:56.468Z,90.26
2018-05-29T00:42:23.943Z,91.18
2018-05-29T00:44:51.430Z,91.80
2018-05-29T00:47:18.900Z,92.37
2018-05-29T00:49:46.567Z,91.39
2018-05-29T00:52:14.040Z,91.44
2018-05-29T00:54:41.516Z,92.58
2018-05-29T00:57:08.999Z,91.99
2018-05-29T00:59:36.467Z,92.40
2018-05-29T01:02:03.952Z,91.28
2018-05-29T01:04:31.416Z,91.73
2018-05-29T01:06:58.883Z,89.95
2018-05-29T01:09:26.374Z,90.72
2018-05-29T01:11:53.854Z,90.66
2018-05-29T01:14:21.353Z,92.43
2018-05-29T01:16:48.813Z,92.21
2018-05-29T01:19:16.280Z,90.83
2018-05-29T01:21:43.772Z,90.47
2018-05-29T01:24:11.237Z,90.82
2018-05-29T01:26:38.731Z,90.40
2018-05-29T01:29:06.376Z,91.23
2018-05-29T01:31:33.851Z,91.21
2018-05-29T01:34:01.348Z,91.68
2018-05-29T01:36:28.815Z,91.55
2018-05-29T01:38:56.314Z,91.35
2018-05-29T01:41:23.787Z,94.13
2018-05-29T01:43:51.255Z,95.83
2018-05-29T01:46:18.735Z,93.34
2018-05-29T01:48:46.224Z,93.24
2018-05-29T01:51:13.715Z,93.18
2018-05-29T01:53:41.181Z,91.62
2018-05-29T01:56:08.666Z,92.83
2018-05-29T01:58:36.153Z,92.36
2018-05-29T02:01:03.620Z,95.76
2018-05-29T02:03:31.109Z,92.78
2018-05-29T02:05:58.567Z,92.39
2018-05-29T02:08:26.036Z,93.79
2018-05-29T02:10:53.532Z,93.93
2018-05-29T02:13:21.007Z,92.54
2018-05-29T02:15:48.497Z,93.20
2018-05-29T02:18:15.961Z,93.15
2018-05-29T02:20:43.450Z,93.52
2018-05-29T02:23:10.924Z,92.10
2018-05-29T02:25:38.396Z,93.28
2018-05-29T02:28:05.899Z,93.82
2018-05-29T02:30:33.374Z,93.61
2018-05-29T02:33:00.857Z,95.68
2018-05-29T02:35:28.316Z,93.74
2018-05-29T02:37:55.807Z,93.97
2018-05-29T02:40:23.277Z,95.34
2018-05-29T02:42:50.753Z,94.46
2018-05-29T02:45:18.241Z,94.42
2018-05-29T02:47:45.721Z,94.64
2018-05-29T02:50:13.203Z,95.38
2018-05-29T02:52:40.670Z,96.13
2018-05-29T02:55:08.132Z,96.34
2018-05-29T02:57:35.620Z,97.63
2018-05-29T03:00:03.090Z,99.44
2018-05-29T03:02:30.944Z,99.14
2018-05-29T03:04:58.417Z,100.00
2018-05-29T03:07:25.887Z,100.00
2018-05-29T03:09:53.390Z,100.00
2018-05-29T03:12:20.859Z,100.00
2018-05-29T03:14:49.479Z,100.00
2018-05-29T03:17:16.955Z,100.00
2018-05-29T03:19:44.431Z,100.00
2018-05-29T03:22:11.917Z,100.00
2018-05-29T03:24:39.387Z,100.00
2018-05-29T03:27:06.877Z,100.00
2018-05-29T03:29:34.356Z,100.00
2018-05-29T03:32:01.852Z,99.96
2018-05-29T03:34:29.350Z,98.59
2018-05-29T03:36:56.800Z,97.74
2018-05-29T03:39:24.439Z,97.74
2018-05-29T03:41:51.906Z,96.64
2018-05-29T03:44:19.399Z,96.69
2018-05-29T03:46:46.870Z,96.58
2018-05-29T03:49:14.347Z,96.96
2018-05-29T03:51:41.831Z,94.56
2018-05-29T03:54:09.304Z,97.20
2018-05-29T03:56:36.789Z,92.96
2018-05-29T03:59:04.253Z,95.30
2018-05-29T04:01:31.722Z,93.78
2018-05-29T04:03:59.208Z,93.34
2018-05-29T04:06:26.675Z,95.71
2018-05-29T04:08:54.172Z,93.45
2018-05-29T04:11:21.633Z,94.61
2018-05-29T04:13:49.100Z,93.95
2018-05-29T04:16:16.593Z,96.16
2018-05-29T04:18:44.060Z,94.76
2018-05-29T04:21:11.577Z,94.56
2018-05-29T04:23:39.039Z,94.50
2018-05-29T04:26:06.512Z,93.45
2018-05-29T04:28:33.996Z,93.84
2018-05-29T04:31:01.473Z,95.08
2018-05-29T04:33:29.175Z,92.86
2018-05-29T04:35:56.644Z,92.49
2018-05-29T04:38:24.135Z,92.38
2018-05-29T04:40:51.604Z,92.33
2018-05-29T04:43:19.082Z,92.29
2018-05-29T04:45:46.583Z,90.81
2018-05-29T04:48:14.043Z,92.10
2018-05-29T04:50:41.532Z,89.93
2018-05-29T04:56:06.929Z,88.47
2018-05-29T04:58:34.401Z,88.23
2018-05-29T05:01:01.878Z,89.86
2018-05-29T05:03:29.359Z,90.92
2018-05-29T05:05:56.822Z,87.64
2018-05-29T05:08:24.338Z,85.37
2018-05-29T05:10:52.080Z,85.74
2018-05-29T05:13:19.556Z,83.96
2018-05-29T05:15:47.037Z,81.68
2018-05-29T05:18:14.506Z,83.64
2018-05-29T05:20:41.984Z,82.59
2018-05-29T05:23:09.457Z,80.78
2018-05-29T05:25:37.462Z,79.73
2018-05-29T05:28:04.947Z,80.77
2018-05-29T05:30:32.413Z,80.70
2018-05-29T05:32:59.907Z,83.04
2018-05-29T05:35:27.392Z,81.86
2018-05-29T05:37:54.872Z,80.58
2018-05-29T05:40:22.353Z,80.99
2018-05-29T05:42:49.833Z,79.73
2018-05-29T05:45:17.311Z,81.69
2018-05-29T05:47:44.778Z,81.01
2018-05-29T05:50:12.244Z,81.55
2018-05-29T05:52:40.778Z,81.31
2018-05-29T05:55:08.247Z,80.48
2018-05-29T05:57:35.738Z,81.47
2018-05-29T06:00:03.217Z,81.29
2018-05-29T06:02:30.695Z,80.77
2018-05-29T06:04:58.182Z,81.96
2018-05-29T06:07:25.650Z,81.13
2018-05-29T06:09:53.156Z,83.39
2018-05-29T06:12:20.620Z,79.97
2018-05-29T06:14:48.088Z,81.72
2018-05-29T06:17:15.576Z,80.79
2018-05-29T06:19:43.321Z,81.82
2018-05-29T06:22:10.796Z,81.30
2018-05-29T06:24:38.288Z,82.25
2018-05-29T06:27:05.761Z,78.75
2018-05-29T06:29:33.259Z,80.62
2018-05-29T06:32:00.733Z,79.91
2018-05-29T06:34:28.193Z,80.79
2018-05-29T06:36:55.688Z,80.54
2018-05-29T06:39:23.175Z,78.81
2018-05-29T06:41:50.660Z,79.83
2018-05-29T06:44:18.132Z,80.48
2018-05-29T06:46:45.821Z,76.97
2018-05-29T06:49:13.311Z,77.18
2018-05-29T06:51:40.777Z,75.12
2018-05-29T06:54:08.260Z,77.68
2018-05-29T06:56:35.719Z,74.48
2018-05-29T06:59:03.181Z,73.67
2018-05-29T07:01:30.673Z,76.14
2018-05-29T07:03:58.183Z,76.26
2018-05-29T07:06:25.648Z,73.91
2018-05-29T07:08:53.106Z,73.65
2018-05-29T07:11:20.577Z,72.12
2018-05-29T07:13:48.072Z,72.02
2018-05-29T07:16:15.537Z,73.87
2018-05-29T07:18:43.000Z,71.63
2018-05-29T07:21:10.480Z,74.10
2018-05-29T07:23:37.941Z,71.11
2018-05-29T07:26:05.415Z,69.09
2018-05-29T07:28:32.892Z,70.71
2018-05-29T07:31:00.355Z,70.91
2018-05-29T07:33:27.848Z,68.97
2018-05-29T07:35:55.316Z,70.09
2018-05-29T07:38:22.795Z,70.02
2018-05-29T07:40:50.261Z,69.29
2018-05-29T07:43:17.744Z,69.46
2018-05-29T07:45:45.204Z,70.07
2018-05-29T07:48:12.671Z,70.10
2018-05-29T07:50:40.155Z,71.38
2018-05-29T07:53:07.629Z,68.08
2018-05-29T07:55:35.124Z,68.14
2018-05-29T07:58:02.593Z,68.84
2018-05-29T08:00:30.060Z,67.44
2018-05-29T08:02:57.550Z,64.11
2018-05-29T08:05:25.031Z,66.06
2018-05-29T08:07:52.511Z,64.19
2018-05-29T08:10:19.984Z,65.08
2018-05-29T08:12:47.445Z,64.83
2018-05-29T08:15:14.933Z,65.70
2018-05-29T08:17:42.403Z,63.80
2018-05-29T08:20:09.892Z,63.78
2018-05-29T08:22:37.361Z,62.08
2018-05-29T08:25:04.819Z,64.30
2018-05-29T08:27:32.299Z,63.84
2018-05-29T08:29:59.760Z,64.29
2018-05-29T08:32:27.240Z,62.72
2018-05-29T08:34:54.740Z,61.29
2018-05-29T08:37:22.216Z,60.43
2018-05-29T08:39:49.724Z,61.80
2018-05-29T08:42:17.205Z,62.53
2018-05-29T08:44:44.847Z,60.29
2018-05-29T08:47:12.319Z,60.25
2018-05-29T08:49:39.789Z,61.97
2018-05-29T08:52:07.267Z,63.27
2018-05-29T08:54:34.732Z,60.57
2018-05-29T08:57:02.222Z,60.21
2018-05-29T08:59:29.696Z,58.81
2018-05-29T09:01:57.169Z,59.15
2018-05-29T09:04:24.649Z,60.58
2018-05-29T09:06:52.118Z,58.70
2018-05-29T09:09:19.614Z,57.84
2018-05-29T09:11:47.131Z,55.34
2018-05-29T09:14:14.564Z,57.97
2018-05-29T09:16:42.047Z,59.28
2018-05-29T09:19:09.521Z,57.69
2018-05-29T09:21:37.009Z,57.34
2018-05-29T09:24:04.485Z,57.80
2018-05-29T09:26:31.949Z,56.03
2018-05-29T09:28:59.437Z,57.07
2018-05-29T09:31:26.896Z,57.39
2018-05-29T09:33:54.389Z,58.20
2018-05-29T09:36:21.867Z,55.67
2018-05-29T09:38:49.336Z,55.34
2018-05-29T09:41:16.837Z,55.68
2018-05-29T09:43:44.297Z,58.51
2018-05-29T09:46:11.777Z,55.10
2018-05-29T09:48:39.241Z,54.84
2018-05-29T09:51:06.695Z,54.75
2018-05-29T09:53:34.194Z,53.81
2018-05-29T09:56:01.663Z,56.66
2018-05-29T09:58:29.470Z,54.93
2018-05-29T10:00:56.943Z,53.13
2018-05-29T10:03:24.408Z,53.37
2018-05-29T10:05:51.891Z,53.61
2018-05-29T10:08:19.354Z,52.83
2018-05-29T10:10:46.843Z,53.00
2018-05-29T10:13:14.370Z,53.27
2018-05-29T10:15:41.822Z,54.45
2018-05-29T10:18:09.299Z,51.75
2018-05-29T10:20:36.766Z,52.67
2018-05-29T10:23:04.240Z,51.04
2018-05-29T10:25:31.706Z,52.37
2018-05-29T10:27:59.180Z,50.05
2018-05-29T10:30:26.643Z,50.44
2018-05-29T10:32:54.140Z,50.62
2018-05-29T10:35:21.611Z,48.95
2018-05-29T10:37:49.079Z,50.60
2018-05-29T10:40:16.558Z,45.70
2018-05-29T10:42:44.027Z,47.55
2018-05-29T10:45:11.514Z,50.03
2018-05-29T10:47:38.980Z,49.70
2018-05-29T10:50:06.452Z,47.40
2018-05-29T10:52:33.997Z,48.66
2018-05-29T10:55:01.420Z,46.20
2018-05-29T10:57:28.908Z,48.99
2018-05-29T10:59:56.380Z,47.37
2018-05-29T11:02:23.844Z,46.40
2018-05-29T11:04:51.336Z,43.51
2018-05-29T11:07:18.805Z,45.21
2018-05-29T11:09:46.748Z,44.49
2018-05-29T11:12:14.215Z,42.04
2018-05-29T11:14:41.675Z,43.15
2018-05-29T11:17:09.148Z,46.20
2018-05-29T11:19:36.607Z,42.48
2018-05-29T11:22:04.106Z,42.00
2018-05-29T11:24:31.572Z,41.30
2018-05-29T11:26:59.051Z,40.39
2018-05-29T11:29:26.530Z,42.25
2018-05-29T11:31:54.001Z,42.14
2018-05-29T11:34:21.488Z,38.13
2018-05-29T11:36:49.000Z,39.00
2018-05-29T11:39:16.467Z,39.97
2018-05-29T11:41:43.952Z,38.33
2018-05-29T11:44:11.412Z,38.71
2018-05-29T11:46:38.907Z,35.78
2018-05-29T11:49:06.369Z,35.13
2018-05-29T11:51:33.836Z,33.21
2018-05-29T11:54:01.320Z,35.25
2018-05-29T11:56:28.792Z,33.84
2018-05-29T11:58:56.291Z,33.55
2018-05-29T12:01:23.759Z,34.21
2018-05-29T12:03:51.240Z,34.33
2018-05-29T12:06:18.705Z,36.08
2018-05-29T12:08:46.173Z,31.45
2018-05-29T12:11:13.653Z,32.72
2018-05-29T12:13:41.117Z,33.68
2018-05-29T12:16:08.604Z,31.88
2018-05-29T12:18:36.085Z,34.33
2018-05-29T12:21:03.551Z,33.42
2018-05-29T12:23:31.037Z,36.91
2018-05-29T12:25:58.502Z,35.95
2018-05-29T12:28:26.005Z,32.71
2018-05-29T12:30:53.481Z,38.19
2018-05-29T12:33:20.958Z,37.94
2018-05-29T12:35:48.431Z,35.75
2018-05-29T12:38:15.895Z,34.62
2018-05-29T12:40:43.380Z,34.20
2018-05-29T12:43:10.831Z,34.12
2018-05-29T12:45:38.302Z,32.23
2018-05-29T12:48:05.791Z,33.24
2018-05-29T12:50:33.267Z,32.12
2018-05-29T12:53:00.762Z,36.11
2018-05-29T12:55:28.231Z,36.04
2018-05-29T12:57:55.718Z,33.91
2018-05-29T13:00:23.198Z,34.91
2018-05-29T13:02:50.679Z,33.85
2018-05-29T13:05:18.185Z,33.29
2018-05-29T13:07:45.689Z,35.43
2018-05-29T13:10:13.168Z,34.90
2018-05-29T13:12:40.636Z,35.35
2018-05-29T13:15:08.175Z,33.38
2018-05-29T13:17:35.636Z,36.61
2018-05-29T13:20:03.096Z,38.82
2018-05-29T13:22:30.631Z,34.98
2018-05-29T13:24:58.065Z,35.50
2018-05-29T13:27:25.648Z,35.11
2018-05-29T13:29:53.108Z,31.02
2018-05-29T13:32:20.573Z,31.04
2018-05-29T13:34:48.058Z,29.35
2018-05-29T13:37:15.567Z,29.54
2018-05-29T13:39:43.044Z,26.71
2018-05-29T13:42:10.508Z,31.36
2018-05-29T13:44:37.982Z,31.31
2018-05-29T13:47:05.510Z,26.28
2018-05-29T13:49:32.981Z,26.09
2018-05-29T13:52:00.480Z,28.07
2018-05-29T13:54:27.947Z,24.42
2018-05-29T13:56:55.431Z,26.33
2018-05-29T13:59:22.941Z,25.65
2018-05-29T14:01:50.401Z,27.50
2018-05-29T14:04:17.889Z,23.83
2018-05-29T14:06:45.356Z,26.22
2018-05-29T14:09:12.812Z,25.28
2018-05-29T14:11:40.303Z,28.26
2018-05-29T14:14:07.775Z,28.80
2018-05-29T14:16:35.276Z,28.69
2018-05-29T14:19:02.744Z,28.62
2018-05-29T14:21:30.567Z,27.50
2018-05-29T14:23:58.055Z,25.01
2018-05-29T14:26:25.516Z,30.84
2018-05-29T14:28:52.999Z,25.86
2018-05-29T14:31:20.468Z,30.20
2018-05-29T14:33:47.953Z,25.80
2018-05-29T14:36:15.420Z,27.25
2018-05-29T14:38:42.883Z,24.55
2018-05-29T14:41:10.355Z,28.55
2018-05-29T14:43:37.810Z,28.74
2018-05-29T14:46:05.306Z,27.89
2018-05-29T14:48:32.780Z,30.90
2018-05-29T14:51:00.248Z,27.70
2018-05-29T14:53:27.732Z,29.07
2018-05-29T14:55:55.201Z,29.44
2018-05-29T14:58:22.692Z,31.05
2018-05-29T15:00:50.801Z,31.03
2018-05-29T15:03:18.269Z,35.60
2018-05-29T15:05:45.753Z,35.97
2018-05-29T15:08:13.218Z,36.11
2018-05-29T15:10:40.707Z,38.25
2018-05-29T15:13:08.177Z,39.18
2018-05-29T15:15:35.654Z,38.25
2018-05-29T15:18:03.122Z,39.40
2018-05-29T15:20:30.580Z,36.96
2018-05-29T15:22:58.063Z,37.72
2018-05-29T15:25:25.524Z,36.62
2018-05-29T15:27:53.004Z,36.86
2018-05-29T15:30:20.464Z,40.40
2018-05-29T15:32:47.966Z,36.99
2018-05-29T15:35:15.444Z,35.71
2018-05-29T15:37:42.912Z,36.45
2018-05-29T15:40:10.398Z,40.00
2018-05-29T15:42:37.854Z,35.00
2018-05-29T15:45:05.320Z,35.49
2018-05-29T15:47:32.803Z,38.92
2018-05-29T15:50:00.527Z,41.41
2018-05-29T15:52:28.036Z,40.39
2018-05-29T15:54:55.794Z,40.02
2018-05-29T15:57:23.236Z,42.81
2018-05-29T15:59:50.744Z,44.01
2018-05-29T16:02:18.182Z,45.53
2018-05-29T16:04:45.663Z,42.93
2018-05-29T16:07:13.137Z,45.31
2018-05-29T16:09:40.617Z,43.18
2018-05-29T16:12:08.079Z,42.91
2018-05-29T16:14:35.541Z,44.33
2018-05-29T16:17:03.024Z,44.14
2018-05-29T16:19:30.501Z,45.00
2018-05-29T16:21:58.263Z,43.91
2018-05-29T16:24:25.723Z,43.85
2018-05-29T16:26:53.197Z,46.19
2018-05-29T16:29:20.689Z,46.88
2018-05-29T16:31:48.154Z,44.76
2018-05-29T16:34:15.638Z,44.33
2018-05-29T16:36:43.093Z,44.67
2018-05-29T16:39:10.692Z,44.12
2018-05-29T16:41:38.198Z,43.99
2018-05-29T16:44:05.660Z,44.77
2018-05-29T16:46:33.148Z,44.77
2018-05-29T16:49:00.617Z,45.24
2018-05-29T16:51:28.083Z,45.38
2018-05-29T16:53:55.558Z,46.01
2018-05-29T16:56:23.039Z,45.81
2018-05-29T16:58:50.506Z,45.95
2018-05-29T17:01:17.979Z,46.15
2018-05-29T17:03:45.460Z,45.72
2018-05-29T17:06:12.932Z,46.14
2018-05-29T17:08:40.393Z,45.78
2018-05-29T17:11:07.921Z,45.96
2018-05-29T17:13:35.393Z,46.22
2018-05-29T17:16:02.873Z,47.05
2018-05-29T17:18:30.437Z,47.53
2018-05-29T17:20:57.888Z,47.77
2018-05-29T17:23:25.377Z,48.81
2018-05-29T17:25:52.856Z,49.38
2018-05-29T17:28:20.350Z,50.33
2018-05-29T17:30:47.813Z,51.50
2018-05-29T17:33:15.268Z,52.44
2018-05-29T17:35:42.752Z,53.45
2018-05-29T17:38:10.983Z,55.16
2018-05-29T17:40:38.533Z,55.66
2018-05-29T17:43:06.017Z,54.60
2018-05-29T17:45:33.559Z,54.50
2018-05-29T17:48:01.081Z,54.63
2018-05-29T17:50:28.555Z,53.22
2018-05-29T17:52:56.035Z,53.39
2018-05-29T17:55:23.513Z,53.14
2018-05-29T17:57:50.995Z,53.29
2018-05-29T18:00:19.343Z,52.56
2018-05-29T18:02:46.868Z,52.88
2018-05-29T18:05:14.642Z,54.15
2018-05-29T18:07:42.099Z,54.92
2018-05-29T18:10:09.588Z,52.66
2018-05-29T18:12:37.069Z,52.64
2018-05-29T18:15:04.597Z,52.40
2018-05-29T18:17:32.074Z,54.07
2018-05-29T18:19:59.545Z,54.05
2018-05-29T18:22:27.020Z,53.90
2018-05-29T18:24:54.488Z,54.17
2018-05-29T18:27:21.984Z,53.86
2018-05-29T18:29:49.439Z,54.16
2018-05-29T18:32:16.893Z,54.05
2018-05-29T18:34:44.369Z,53.85
2018-05-29T18:37:11.833Z,55.29
2018-05-29T18:39:39.324Z,55.16
2018-05-29T18:42:06.784Z,57.22
2018-05-29T18:44:34.283Z,56.19
2018-05-29T18:47:01.771Z,56.26
2018-05-29T18:49:29.234Z,56.70
2018-05-29T18:51:56.755Z,56.74
2018-05-29T18:54:24.240Z,58.04
2018-05-29T18:56:51.702Z,57.46
2018-05-29T18:59:19.193Z,56.83
2018-05-29T19:01:46.807Z,57.06
2018-05-29T19:04:14.541Z,57.80
2018-05-29T19:06:42.027Z,57.84
2018-05-29T19:09:09.864Z,58.37
2018-05-29T19:11:37.845Z,58.17
2018-05-29T19:14:05.637Z,58.81
2018-05-29T19:16:33.162Z,59.17
2018-05-29T19:19:00.678Z,59.31
2018-05-29T19:21:28.216Z,59.04
2018-05-29T19:23:56.029Z,59.55
2018-05-29T19:26:23.482Z,59.74
2018-05-29T19:28:51.279Z,59.73
2018-05-29T19:31:18.806Z,59.04
2018-05-29T19:33:47.034Z,59.40
2018-05-29T19:36:14.867Z,59.35
2018-05-29T19:38:42.322Z,60.26
2018-05-29T19:41:10.468Z,60.28
2018-05-29T19:43:37.981Z,60.00
2018-05-29T19:46:05.421Z,60.38
2018-05-29T19:48:33.085Z,60.24
2018-05-29T19:51:01.076Z,61.33
2018-05-29T19:53:28.653Z,60.71
2018-05-29T19:55:56.103Z,60.44
2018-05-29T19:58:23.853Z,61.11
2018-05-29T20:00:51.328Z,61.80
2018-05-29T20:03:18.839Z,61.76
2018-05-29T20:05:46.336Z,62.27
2018-05-29T20:08:13.799Z,61.98
2018-05-29T20:10:41.294Z,62.84
2018-05-29T20:13:08.768Z,62.41
2018-05-29T20:15:36.232Z,61.54
2018-05-29T20:18:03.708Z,61.82
2018-05-29T20:20:32.174Z,62.35
2018-05-29T20:22:59.699Z,62.97
2018-05-29T20:25:27.168Z,63.09
2018-05-29T20:27:54.648Z,63.23
2018-05-29T20:30:22.120Z,63.43
2018-05-29T20:32:49.582Z,63.50
2018-05-29T20:35:17.098Z,63.35
2018-05-29T20:37:44.570Z,63.76
2018-05-29T20:40:12.064Z,64.19
2018-05-29T20:42:39.552Z,64.79
2018-05-29T20:45:07.035Z,64.23
2018-05-29T20:47:35.063Z,64.50
2018-05-29T20:50:02.591Z,64.46
2018-05-29T20:52:30.010Z,64.99
2018-05-29T20:54:57.644Z,64.90
2018-05-29T20:57:25.109Z,65.32
2018-05-29T20:59:53.990Z,64.65
2018-05-29T21:02:21.511Z,65.08
2018-05-29T21:04:48.987Z,64.80
2018-05-29T21:07:16.475Z,64.11
2018-05-29T21:09:43.940Z,64.16
2018-05-29T21:12:11.432Z,65.53
2018-05-29T21:14:39.272Z,64.78
2018-05-29T21:17:06.736Z,65.44
2018-05-29T21:19:34.223Z,65.66
2018-05-29T21:22:01.687Z,65.67
2018-05-29T21:24:29.176Z,66.21
2018-05-29T21:26:56.643Z,66.39
2018-05-29T21:29:24.105Z,66.16
2018-05-29T21:31:51.588Z,65.76
2018-05-29T21:34:19.061Z,66.90
2018-05-29T21:36:46.570Z,66.19
2018-05-29T21:39:14.039Z,66.98
2018-05-29T21:41:41.845Z,67.63
2018-05-29T21:44:09.329Z,67.41
2018-05-29T21:46:36.805Z,67.67
2018-05-29T21:49:04.299Z,69.06
2018-05-29T21:51:31.775Z,69.32
2018-05-29T21:53:59.266Z,69.55
2018-05-29T21:56:26.723Z,69.70
2018-05-29T21:58:54.191Z,69.55
2018-05-29T22:01:21.668Z,70.68
2018-05-29T22:03:49.140Z,71.08
2018-05-29T22:06:16.639Z,70.88
2018-05-29T22:08:44.116Z,70.70
2018-05-29T22:11:11.670Z,70.80
2018-05-29T22:13:39.167Z,70.58
2018-05-29T22:16:06.628Z,70.06
2018-05-29T22:18:34.123Z,69.36
2018-05-29T22:21:01.677Z,68.98
2018-05-29T22:23:29.111Z,69.95
2018-05-29T22:25:56.576Z,70.31
2018-05-29T22:28:24.048Z,68.81
2018-05-29T22:30:51.523Z,69.28
2018-05-29T22:33:18.990Z,69.31
2018-05-29T22:35:47.405Z,69.11
2018-05-29T22:38:14.866Z,69.62
2018-05-29T22:40:42.332Z,69.27
2018-05-29T22:43:09.825Z,68.88
2018-05-29T22:45:37.299Z,69.54
2018-05-29T22:48:04.786Z,68.73
2018-05-29T22:50:32.257Z,68.24
2018-05-29T22:52:59.723Z,68.29
2018-05-29T22:55:27.220Z,67.91
2018-05-29T22:57:54.697Z,69.01
2018-05-29T23:00:22.192Z,69.19
2018-05-29T23:02:49.658Z,68.65
2018-05-29T23:05:17.150Z,67.99
2018-05-29T23:07:45.866Z,68.30
2018-05-29T23:10:13.329Z,68.96
2018-05-29T23:12:40.815Z,69.91
2018-05-29T23:15:08.284Z,68.34
2018-05-29T23:17:35.785Z,69.02
2018-05-29T23:20:03.316Z,67.21
2018-05-29T23:22:30.786Z,67.59
2018-05-29T23:24:58.272Z,67.98
2018-05-29T23:27:25.735Z,68.70
2018-05-29T23:29:53.222Z,69.01
2018-05-29T23:32:20.691Z,70.29
2018-05-29T23:34:48.175Z,69.56
2018-05-29T23:37:15.648Z,70.18
2018-05-29T23:39:43.108Z,69.32
2018-05-29T23:42:10.600Z,69.24
2018-05-29T23:44:38.056Z,69.04
2018-05-29T23:47:05.534Z,69.09
2018-05-29T23:49:32.995Z,69.33
2018-05-29T23:52:00.484Z,70.35
2018-05-29T23:54:27.943Z,71.03
2018-05-29T23:56:55.415Z,70.97
2018-05-29T23:59:22.896Z,71.54
